Terminal Aerodrome Forecast
Issued by NWS New Orleans/Baton Rouge, LA

Home | Current Version | Previous Version | Text Only | Print | Product List | Glossary On
Versions: 1 2 3 4 5 6 7 8 9 10 11 12 13 14 15 16 17 18
000
FTUS44 KLIX 211922 AAA
TAFBTR
TAF AMD
KBTR 211922Z 2119/2218 17016KT P6SM VCSH SCT040 BKN050
     FM220300 17009KT P6SM BKN025
     FM220500 16008KT P6SM BKN015 PROB30 2208/2212 2SM -SHRA OVC008=

USA.gov is the U.S. government's official web portal to all federal, state and local government web resources and services.